createdAt,value
2023-03-02T00:01:09.532Z,4093
2023-03-02T00:06:45.609Z,4094
2023-03-02T00:12:21.681Z,4092
2023-03-02T00:18:05.785Z,4091
2023-03-02T00:23:44.816Z,4091.4
2023-03-02T00:29:20.864Z,4091.7
2023-03-02T00:35:17.116Z,4092.5
2023-03-02T00:40:55.131Z,4090
2023-03-02T00:46:45.264Z,4089.2
2023-03-02T00:52:20.639Z,4091.5
2023-03-02T00:57:58.274Z,4094.5
2023-03-02T01:03:34.107Z,4090.4
2023-03-02T01:09:09.240Z,4090.7
2023-03-02T01:14:44.746Z,4090
2023-03-02T01:20:20.452Z,4088.8
2023-03-02T01:25:55.803Z,4087.2
2023-03-02T01:31:40.041Z,4089.7
2023-03-02T01:37:15.570Z,4088.8
2023-03-02T01:42:51.815Z,4083.6
2023-03-02T01:48:27.520Z,4084.3
2023-03-02T01:54:05.068Z,4088.3
2023-03-02T02:00:01.046Z,4085.8
2023-03-02T02:05:53.115Z,4086.2
2023-03-02T02:11:28.821Z,4083.6
2023-03-02T02:17:05.231Z,4089.5
2023-03-02T02:22:40.690Z,4086.7
2023-03-02T02:28:15.782Z,4086.2
2023-03-02T02:33:50.910Z,4083.6
2023-03-02T02:39:26.550Z,4083.3
2023-03-02T02:45:07.152Z,4081.8
2023-03-02T02:50:53.624Z,4085.5
2023-03-02T02:56:44.213Z,4084.5
2023-03-02T03:02:41.222Z,4082
2023-03-02T03:08:44.927Z,4080
2023-03-02T03:14:52.264Z,4081.1
2023-03-02T03:20:27.087Z,4079.5
2023-03-02T03:26:12.172Z,4081.3
2023-03-02T03:31:55.739Z,4083.1
2023-03-02T03:37:31.240Z,4082.8
2023-03-02T03:43:26.776Z,4079
2023-03-02T03:49:10.441Z,4081.5
2023-03-02T03:54:45.854Z,4076.8
2023-03-02T04:00:25.228Z,4078.8
2023-03-02T04:06:00.896Z,4078
2023-03-02T04:11:36.442Z,4076.1
2023-03-02T04:17:23.235Z,4079.1
2023-03-02T04:23:03.270Z,4080.8
2023-03-02T04:28:44.270Z,4080.1
2023-03-02T04:34:36.514Z,4081.1
2023-03-02T04:40:12.244Z,4077.5
2023-03-02T04:46:23.092Z,4079.8
2023-03-02T04:52:16.149Z,4075.6
2023-03-02T04:57:55.340Z,4079
2023-03-02T05:03:34.749Z,4076.8
2023-03-02T05:09:09.778Z,4080
2023-03-02T05:14:47.243Z,4076.4
2023-03-02T05:20:28.682Z,4076.9
2023-03-02T05:27:34.489Z,4078.3
2023-03-02T05:33:26.151Z,4076.1
2023-03-02T05:39:01.367Z,4076.3
2023-03-02T05:44:36.690Z,4081.5
2023-03-02T05:50:25.280Z,4078.8
2023-03-02T05:56:16.037Z,4076.9
2023-03-02T06:01:57.433Z,4075.1
2023-03-02T06:07:32.943Z,4075.3
2023-03-02T06:13:08.201Z,4075.6
2023-03-02T06:18:55.374Z,4070.9
2023-03-02T06:24:31.370Z,4073.9
2023-03-02T06:30:06.929Z,4073.4
2023-03-02T06:35:43.758Z,4070.6
2023-03-02T06:41:19.520Z,4073.9
2023-03-02T06:46:57.366Z,4074.4
2023-03-02T06:52:41.210Z,4074.4
2023-03-02T06:58:21.977Z,4075.1
2023-03-02T07:03:57.922Z,4075.8
2023-03-02T07:09:42.814Z,4073.8
2023-03-02T07:15:28.009Z,4071.6
2023-03-02T07:21:06.115Z,4071.4
2023-03-02T07:26:47.674Z,4072.8
2023-03-02T07:32:27.190Z,4071.3
2023-03-02T07:38:19.602Z,4070.6
2023-03-02T07:43:57.631Z,4070.1
2023-03-02T07:49:33.146Z,4067.4
2023-03-02T07:55:11.489Z,4068.9
2023-03-02T08:00:49.140Z,4078.8
2023-03-02T08:06:24.760Z,4087.3
2023-03-02T08:12:23.017Z,4092.4
2023-03-02T08:17:59.268Z,4089.8
2023-03-02T08:23:35.074Z,4089.5
2023-03-02T08:29:13.135Z,4097.9
2023-03-02T08:34:49.200Z,4097.4
2023-03-02T08:40:50.773Z,4100.9
2023-03-02T08:46:29.219Z,4090.9
2023-03-02T08:52:04.967Z,4098.9
2023-03-02T08:58:01.266Z,4097.7
2023-03-02T09:03:40.454Z,4106.1
2023-03-02T09:09:16.269Z,4101.2
2023-03-02T09:15:13.037Z,4105.6
2023-03-02T09:20:48.538Z,4098.6
2023-03-02T09:26:32.448Z,4100.6
2023-03-02T09:32:20.563Z,4110.6
2023-03-02T09:37:56.865Z,4114.6
2023-03-02T09:43:32.434Z,4114.6
2023-03-02T09:49:08.311Z,4110.6
2023-03-02T09:54:56.384Z,4128.9
2023-03-02T10:00:46.143Z,4114.5
2023-03-02T10:06:43.357Z,4115.1
2023-03-02T10:13:48.133Z,4132.6
2023-03-02T10:19:26.079Z,4127.4
2023-03-02T10:25:01.533Z,4150.3
2023-03-02T10:30:37.506Z,4185.3
2023-03-02T10:36:12.840Z,4173.4
2023-03-02T10:41:48.249Z,4161.4
2023-03-02T10:47:24.422Z,4183.5
2023-03-02T10:53:10.083Z,4178.6
2023-03-02T10:58:57.775Z,4180.1
2023-03-02T11:04:58.870Z,4183.3
2023-03-02T11:10:46.116Z,4182.3
2023-03-02T11:16:34.937Z,4180.5
2023-03-02T11:22:09.934Z,4175.8
2023-03-02T11:27:48.602Z,4157.3
2023-03-02T11:33:25.242Z,4139.9
2023-03-02T11:39:02.680Z,4132.2
2023-03-02T11:44:38.088Z,4140.6
2023-03-02T11:50:13.616Z,4169.7
2023-03-02T11:55:49.186Z,4165.9
2023-03-02T12:01:26.052Z,4193.5
2023-03-02T12:07:01.851Z,4167.2
2023-03-02T12:12:36.753Z,4180.6
2023-03-02T12:18:11.682Z,4166.2
2023-03-02T12:23:48.056Z,4175.1
2023-03-02T12:30:48.015Z,4189.8
2023-03-02T12:36:24.283Z,4185.5
2023-03-02T12:42:00.628Z,4204.2
2023-03-02T12:47:37.636Z,4178
2023-03-02T12:53:13.713Z,4194
2023-03-02T12:58:57.908Z,4191.7
2023-03-02T13:04:38.096Z,4185.7
2023-03-02T13:10:14.339Z,4188.5
2023-03-02T13:15:50.236Z,4184.8
2023-03-02T13:21:41.731Z,4166.6
2023-03-02T13:27:21.892Z,4164.4
2023-03-02T13:32:57.153Z,4173.3
2023-03-02T13:38:35.798Z,4183.3
2023-03-02T13:44:10.839Z,4187.2
2023-03-02T13:49:45.667Z,4183.8
2023-03-02T13:56:15.001Z,4176.1
2023-03-02T14:02:36.503Z,4159.9
2023-03-02T14:08:21.988Z,4157.4
2023-03-02T14:13:58.555Z,4161.7
2023-03-02T14:19:47.179Z,4163.2
2023-03-02T14:25:29.981Z,4155.5
2023-03-02T14:31:07.346Z,4166.1
2023-03-02T14:36:42.628Z,4177.5
2023-03-02T14:42:28.211Z,4179
2023-03-02T14:48:03.758Z,4169.6
2023-03-02T14:53:38.878Z,4160.7
2023-03-02T14:59:25.630Z,4160.2
2023-03-02T15:05:26.766Z,4152.7
2023-03-02T15:11:25.627Z,4158.7
2023-03-02T15:17:02.428Z,4172.1
2023-03-02T15:22:42.160Z,4189.2
2023-03-02T15:28:17.135Z,4199.2
2023-03-02T15:33:53.377Z,4183.1
2023-03-02T15:39:32.203Z,4176.6
2023-03-02T15:45:08.425Z,4169.1
2023-03-02T15:50:44.670Z,4162.7
2023-03-02T15:56:19.834Z,4163.2
2023-03-02T16:01:55.322Z,4172.4
2023-03-02T16:07:31.089Z,4185.7
2023-03-02T16:13:08.336Z,4185.7
2023-03-02T16:18:43.747Z,4200.6
2023-03-02T16:24:21.796Z,4200.7
2023-03-02T16:29:57.794Z,4186.2
2023-03-02T16:36:17.902Z,4182.3
2023-03-02T16:41:54.908Z,4184.5
2023-03-02T16:47:31.126Z,4181.1
2023-03-02T16:53:06.533Z,4168.7
2023-03-02T16:58:43.101Z,4164.4
2023-03-02T17:04:19.336Z,4156.2
2023-03-02T17:09:54.448Z,4154.2
2023-03-02T17:15:30.897Z,4154.5
2023-03-02T17:21:14.165Z,4152.3
2023-03-02T17:26:49.654Z,4150.1
2023-03-02T17:32:26.575Z,4150.1
2023-03-02T17:38:07.335Z,4150.1
2023-03-02T17:43:48.022Z,4150
2023-03-02T17:49:25.888Z,4148.5
2023-03-02T17:55:04.554Z,4148.5
2023-03-02T18:00:53.614Z,4147.3
2023-03-02T18:06:29.227Z,4146.1
2023-03-02T18:12:04.321Z,4148.8
2023-03-02T18:18:00.339Z,4147.1
2023-03-02T18:23:39.179Z,4146.6
2023-03-02T18:29:18.508Z,4147.1
2023-03-02T18:34:53.748Z,4146
2023-03-02T18:40:34.456Z,4145.6
2023-03-02T18:46:18.761Z,4145.3
2023-03-02T18:52:06.818Z,4145
2023-03-02T18:58:04.223Z,4145.8
2023-03-02T19:04:22.243Z,4144.8
2023-03-02T19:10:07.321Z,4147.6
2023-03-02T19:16:08.892Z,4146.5
2023-03-02T19:21:44.293Z,4145
2023-03-02T19:27:19.952Z,4145.1
2023-03-02T19:32:55.758Z,4145.8
2023-03-02T19:38:44.924Z,4143.6
2023-03-02T19:44:20.724Z,4141.6
2023-03-02T19:50:06.609Z,4142.8
2023-03-02T19:55:48.240Z,4144.3
2023-03-02T20:01:27.830Z,4140.9
2023-03-02T20:07:24.258Z,4140.9
2023-03-02T20:13:27.292Z,4141.1
2023-03-02T20:19:02.839Z,4140.4
2023-03-02T20:24:43.817Z,4142.9
2023-03-02T20:30:45.017Z,4143.1
2023-03-02T20:36:33.113Z,4139.9
2023-03-02T20:42:34.395Z,4137.1
2023-03-02T20:48:12.166Z,4138.6
2023-03-02T20:53:51.288Z,4137.1
2023-03-02T20:59:27.924Z,4137.9
2023-03-02T21:05:05.353Z,4139.4
2023-03-02T21:10:54.967Z,4133.6
2023-03-02T21:16:31.480Z,4139.1
2023-03-02T21:22:09.488Z,4136.2
2023-03-02T21:27:48.004Z,4133.9
2023-03-02T21:33:30.507Z,4138.6
2023-03-02T21:39:09.885Z,4135.2
2023-03-02T21:44:44.859Z,4136.1
2023-03-02T21:50:45.373Z,4134.7
2023-03-02T21:56:56.268Z,4134.9
2023-03-02T22:02:41.126Z,4133.7
2023-03-02T22:08:38.510Z,4129.5
2023-03-02T22:14:13.101Z,4133.7
2023-03-02T22:19:51.933Z,4134.4
2023-03-02T22:25:35.145Z,4130.4
2023-03-02T22:31:11.822Z,4131.4
2023-03-02T22:36:58.660Z,4132.1
2023-03-02T22:42:42.886Z,4130.2
2023-03-02T22:48:21.354Z,4132.2
2023-03-02T22:54:06.086Z,4130
2023-03-02T23:00:23.951Z,4130.9
2023-03-02T23:06:20.923Z,4128.2
2023-03-02T23:11:59.342Z,4131.4
2023-03-02T23:17:44.685Z,4128.7
2023-03-02T23:23:19.702Z,4128.7
2023-03-02T23:28:54.657Z,4130.2
2023-03-02T23:34:33.040Z,4126.2
2023-03-02T23:40:12.585Z,4127.7
2023-03-02T23:45:48.385Z,4126.5
2023-03-02T23:51:45.723Z,4125.5
2023-03-02T23:57:20.505Z,4125.2
